createdAt,value
2022-10-31T00:01:17.940Z,15.41
2022-10-31T00:03:44.689Z,15.45
2022-10-31T00:06:11.417Z,15.49
2022-10-31T00:08:38.300Z,15.54
2022-10-31T00:11:05.153Z,15.57
2022-10-31T00:13:32.410Z,15.57
2022-10-31T00:15:59.167Z,15.54
2022-10-31T00:18:25.926Z,15.50
2022-10-31T00:21:05.380Z,15.47
2022-10-31T00:23:33.553Z,15.43
2022-10-31T00:26:04.687Z,15.40
2022-10-31T00:28:33.100Z,15.35
2022-10-31T00:31:05.308Z,15.37
2022-10-31T00:33:35.005Z,15.39
2022-10-31T00:36:02.154Z,15.41
2022-10-31T00:38:28.889Z,15.44
2022-10-31T00:40:55.828Z,15.44
2022-10-31T00:43:22.566Z,15.43
2022-10-31T00:45:49.508Z,15.45
2022-10-31T00:48:16.453Z,15.33
2022-10-31T00:50:43.509Z,15.22
2022-10-31T00:53:10.242Z,15.11
2022-10-31T00:55:37.010Z,15.04
2022-10-31T00:58:04.071Z,15.07
2022-10-31T01:00:31.134Z,15.12
2022-10-31T01:02:58.260Z,15.09
2022-10-31T01:05:25.299Z,15.10
2022-10-31T01:07:52.089Z,15.10
2022-10-31T01:10:19.330Z,15.13
2022-10-31T01:12:48.935Z,15.14
2022-10-31T01:15:19.076Z,15.11
2022-10-31T01:17:45.721Z,14.90
2022-10-31T01:20:14.739Z,15.15
2022-10-31T01:22:41.484Z,15.24
2022-10-31T01:25:10.109Z,15.32
2022-10-31T01:27:37.078Z,15.33
2022-10-31T01:30:04.874Z,15.41
2022-10-31T01:32:31.749Z,15.41
2022-10-31T01:34:58.442Z,15.43
2022-10-31T01:37:25.204Z,15.43
2022-10-31T01:39:51.951Z,15.41
2022-10-31T01:42:23.418Z,15.40
2022-10-31T01:44:57.411Z,15.36
2022-10-31T01:47:44.651Z,15.21
2022-10-31T01:50:16.466Z,15.02
2022-10-31T01:52:49.554Z,14.81
2022-10-31T01:55:26.506Z,14.67
2022-10-31T01:58:05.111Z,14.60
2022-10-31T02:00:32.163Z,14.56
2022-10-31T02:03:01.083Z,14.56
2022-10-31T02:05:31.400Z,14.48
2022-10-31T02:08:07.779Z,14.43
2022-10-31T02:10:36.888Z,14.43
2022-10-31T02:13:07.319Z,14.36
2022-10-31T02:15:34.671Z,14.33
2022-10-31T02:18:02.440Z,14.21
2022-10-31T02:20:37.004Z,14.18
2022-10-31T02:23:33.028Z,14.05
2022-10-31T02:26:08.879Z,14.03
2022-10-31T02:28:58.413Z,14.01
2022-10-31T02:31:47.868Z,13.89
2022-10-31T02:34:17.250Z,13.94
2022-10-31T02:37:06.921Z,13.93
2022-10-31T02:39:59.281Z,13.92
2022-10-31T02:42:37.765Z,13.98
2022-10-31T02:45:20.612Z,14.10
2022-10-31T02:47:50.351Z,14.15
2022-10-31T02:50:35.676Z,14.17
2022-10-31T02:53:03.251Z,14.23
2022-10-31T02:55:30.011Z,14.30
2022-10-31T02:58:12.774Z,14.27
2022-10-31T03:00:49.735Z,14.33
2022-10-31T03:03:57.315Z,14.37
2022-10-31T03:06:51.497Z,14.47
2022-10-31T03:09:33.186Z,14.48
2022-10-31T03:12:22.052Z,14.44
2022-10-31T03:15:00.544Z,14.65
2022-10-31T03:17:38.886Z,14.72
2022-10-31T03:20:10.382Z,14.84
2022-10-31T03:22:38.966Z,14.95
2022-10-31T03:25:06.969Z,15.07
2022-10-31T03:27:36.987Z,15.12
2022-10-31T03:30:06.544Z,15.08
2022-10-31T03:32:39.325Z,15.10
2022-10-31T03:35:08.819Z,15.11
2022-10-31T03:37:37.144Z,15.10
2022-10-31T03:40:07.590Z,15.03
2022-10-31T03:42:39.427Z,15.04
2022-10-31T03:45:13.796Z,15.00
2022-10-31T03:47:43.695Z,15.03
2022-10-31T03:50:14.502Z,14.87
2022-10-31T03:52:49.717Z,14.90
2022-10-31T03:55:45.936Z,14.89
2022-10-31T03:58:38.464Z,14.86
2022-10-31T04:01:08.317Z,14.91
2022-10-31T04:03:37.472Z,14.93
2022-10-31T04:06:09.279Z,14.97
2022-10-31T04:08:43.635Z,14.95
2022-10-31T04:11:14.712Z,14.96
2022-10-31T04:13:45.175Z,15.03
2022-10-31T04:16:16.897Z,15.05
2022-10-31T04:18:44.344Z,15.04
2022-10-31T04:21:11.065Z,15.07
2022-10-31T04:23:37.902Z,15.08
2022-10-31T04:26:04.943Z,15.14
2022-10-31T04:28:34.838Z,15.12
2022-10-31T04:31:01.958Z,15.24
2022-10-31T04:33:28.798Z,15.32
2022-10-31T04:35:55.523Z,15.30
2022-10-31T04:38:22.266Z,15.33
2022-10-31T04:40:49.062Z,15.38
2022-10-31T04:43:15.892Z,15.44
2022-10-31T04:45:42.660Z,15.43
2022-10-31T04:48:09.446Z,15.49
2022-10-31T04:50:36.248Z,15.48
2022-10-31T04:53:03.616Z,15.53
2022-10-31T04:55:30.924Z,15.54
2022-10-31T04:57:58.644Z,15.58
2022-10-31T05:00:26.283Z,15.57
2022-10-31T05:02:55.979Z,15.60
2022-10-31T05:05:25.907Z,15.68
2022-10-31T05:07:53.904Z,15.79
2022-10-31T05:10:23.451Z,15.87
2022-10-31T05:12:53.038Z,15.92
2022-10-31T05:15:21.887Z,15.91
2022-10-31T05:17:49.341Z,15.85
2022-10-31T05:20:18.091Z,15.94
2022-10-31T05:22:53.080Z,15.86
2022-10-31T05:25:22.308Z,16.03
2022-10-31T05:27:50.788Z,16.10
2022-10-31T05:30:21.326Z,16.21
2022-10-31T05:32:50.577Z,16.26
2022-10-31T05:35:21.319Z,16.29
2022-10-31T05:37:48.120Z,16.32
2022-10-31T05:40:16.428Z,16.23
2022-10-31T05:42:44.611Z,16.00
2022-10-31T05:45:16.574Z,15.93
2022-10-31T05:47:44.158Z,15.83
2022-10-31T05:50:11.377Z,15.82
2022-10-31T05:52:38.083Z,15.87
2022-10-31T05:55:05.242Z,15.82
2022-10-31T05:57:33.895Z,15.76
2022-10-31T06:00:00.740Z,15.76
2022-10-31T06:02:27.899Z,15.90
2022-10-31T06:04:55.032Z,15.73
2022-10-31T06:07:21.769Z,15.62
2022-10-31T06:09:48.553Z,15.62
2022-10-31T06:12:15.368Z,15.62
2022-10-31T06:14:42.075Z,15.68
2022-10-31T06:17:08.784Z,15.82
2022-10-31T06:19:37.101Z,15.90
2022-10-31T06:22:03.880Z,16.05
2022-10-31T06:24:31.970Z,16.13
2022-10-31T06:26:58.791Z,16.24
2022-10-31T06:29:25.497Z,16.29
2022-10-31T06:31:53.090Z,16.40
2022-10-31T06:34:19.990Z,16.45
2022-10-31T06:36:50.004Z,16.31
2022-10-31T06:39:16.638Z,15.83
2022-10-31T06:41:43.538Z,15.91
2022-10-31T06:44:10.315Z,15.91
2022-10-31T06:46:37.042Z,15.93
2022-10-31T06:49:03.806Z,15.92
2022-10-31T06:51:30.518Z,15.91
2022-10-31T06:53:57.264Z,15.76
2022-10-31T06:56:24.145Z,15.71
2022-10-31T06:58:50.895Z,15.73
2022-10-31T07:01:17.777Z,15.72
2022-10-31T07:03:44.643Z,15.70
2022-10-31T07:06:11.369Z,15.68
2022-10-31T07:08:38.210Z,15.76
2022-10-31T07:11:05.160Z,15.73
2022-10-31T07:13:31.979Z,15.77
2022-10-31T07:16:04.019Z,15.78
2022-10-31T07:18:31.232Z,15.82
2022-10-31T07:20:58.085Z,15.88
2022-10-31T07:23:24.988Z,15.95
2022-10-31T07:25:57.206Z,16.16
2022-10-31T07:28:24.922Z,16.31
2022-10-31T07:30:57.014Z,16.40
2022-10-31T07:33:24.256Z,16.51
2022-10-31T07:35:50.969Z,16.60
2022-10-31T07:38:17.859Z,16.57
2022-10-31T07:40:44.685Z,16.66
2022-10-31T07:43:14.500Z,16.62
2022-10-31T07:45:41.632Z,16.45
2022-10-31T07:48:08.372Z,16.58
2022-10-31T07:50:35.431Z,16.59
2022-10-31T07:53:04.898Z,16.59
2022-10-31T07:55:32.422Z,16.60
2022-10-31T07:58:01.206Z,16.61
2022-10-31T08:00:28.757Z,16.57
2022-10-31T08:03:00.752Z,16.50
2022-10-31T08:05:28.012Z,16.50
2022-10-31T08:07:54.915Z,16.42
2022-10-31T08:10:22.664Z,16.47
2022-10-31T08:12:59.572Z,16.46
2022-10-31T08:15:27.350Z,16.42
2022-10-31T08:17:54.684Z,16.39
2022-10-31T08:20:22.517Z,16.38
2022-10-31T08:23:04.372Z,16.31
2022-10-31T08:25:37.145Z,16.33
2022-10-31T08:28:07.192Z,16.30
2022-10-31T08:30:35.911Z,16.40
2022-10-31T08:33:07.863Z,16.42
2022-10-31T08:35:34.814Z,16.40
2022-10-31T08:38:02.898Z,16.45
2022-10-31T08:40:31.540Z,16.49
2022-10-31T08:43:01.855Z,16.51
2022-10-31T08:45:30.074Z,16.54
2022-10-31T08:48:08.553Z,16.52
2022-10-31T08:50:36.769Z,16.53
2022-10-31T08:53:29.749Z,16.39
2022-10-31T08:55:57.639Z,16.51
2022-10-31T08:58:25.949Z,16.52
2022-10-31T09:00:54.497Z,16.54
2022-10-31T09:03:25.283Z,16.65
2022-10-31T09:05:57.285Z,16.71
2022-10-31T09:08:24.540Z,16.76
2022-10-31T09:10:51.395Z,16.83
2022-10-31T09:13:20.812Z,16.86
2022-10-31T09:15:49.757Z,16.90
2022-10-31T09:18:20.036Z,16.96
2022-10-31T09:20:48.494Z,17.02
2022-10-31T09:23:20.950Z,17.20
2022-10-31T09:25:50.710Z,17.24
2022-10-31T09:28:19.056Z,16.96
2022-10-31T09:30:48.754Z,17.13
2022-10-31T09:33:18.846Z,17.10
2022-10-31T09:35:45.664Z,16.97
2022-10-31T09:38:17.948Z,17.18
2022-10-31T09:40:59.000Z,17.31
2022-10-31T09:43:53.288Z,17.46
2022-10-31T09:46:32.051Z,17.53
2022-10-31T09:49:26.141Z,17.43
2022-10-31T09:54:45.842Z,17.17
2022-10-31T09:57:17.542Z,17.34
2022-10-31T09:59:48.071Z,17.46
2022-10-31T10:02:24.572Z,17.44
2022-10-31T10:05:11.076Z,17.34
2022-10-31T10:08:10.296Z,17.28
2022-10-31T10:10:56.445Z,17.24
2022-10-31T10:13:41.622Z,17.40
2022-10-31T10:16:43.530Z,17.60
2022-10-31T10:19:50.085Z,17.70
2022-10-31T10:22:48.912Z,17.71
2022-10-31T10:25:21.868Z,17.97
2022-10-31T10:27:48.783Z,18.15
2022-10-31T10:30:24.531Z,18.03
2022-10-31T10:33:09.496Z,18.32
2022-10-31T10:35:48.566Z,18.65
2022-10-31T10:38:18.508Z,18.69
2022-10-31T10:40:45.346Z,18.52
2022-10-31T10:43:23.920Z,18.85
2022-10-31T10:46:46.360Z,19.10
2022-10-31T10:49:22.895Z,20.33
2022-10-31T10:52:41.708Z,21.22
2022-10-31T10:55:22.147Z,23.13
2022-10-31T10:57:58.199Z,23.72
2022-10-31T11:00:27.112Z,22.89
2022-10-31T11:02:54.536Z,22.10
2022-10-31T11:05:51.350Z,21.80
2022-10-31T11:08:29.426Z,22.46
2022-10-31T11:11:09.263Z,23.51
2022-10-31T11:13:37.753Z,23.57
2022-10-31T11:16:11.494Z,23.27
2022-10-31T11:18:41.402Z,23.00
2022-10-31T11:21:22.270Z,22.75
2022-10-31T11:23:48.977Z,22.96
2022-10-31T11:26:22.491Z,22.48
2022-10-31T11:29:00.098Z,21.74
2022-10-31T11:31:28.653Z,20.90
2022-10-31T11:34:02.861Z,20.12
2022-10-31T11:36:37.193Z,19.40
2022-10-31T11:39:05.801Z,18.97
2022-10-31T11:41:36.176Z,18.75
2022-10-31T11:44:06.528Z,18.40
2022-10-31T11:46:47.759Z,18.06
2022-10-31T11:49:38.423Z,17.63
2022-10-31T11:52:16.371Z,17.48
2022-10-31T11:54:55.132Z,17.48
2022-10-31T11:57:29.246Z,17.46
2022-10-31T11:59:58.898Z,17.54
2022-10-31T12:02:26.595Z,17.63
2022-10-31T12:05:09.839Z,17.48
2022-10-31T12:07:36.538Z,17.43
2022-10-31T12:10:11.553Z,17.32
2022-10-31T12:12:56.327Z,17.26
2022-10-31T12:15:33.337Z,17.27
2022-10-31T12:18:21.341Z,17.35
2022-10-31T12:21:09.498Z,17.32
2022-10-31T12:24:06.695Z,17.39
2022-10-31T12:26:40.389Z,17.35
2022-10-31T12:29:13.181Z,17.37
2022-10-31T12:31:46.609Z,17.46
2022-10-31T12:34:49.188Z,17.45
2022-10-31T12:37:34.657Z,17.61
2022-10-31T12:40:20.210Z,17.82
2022-10-31T12:42:54.890Z,18.08
2022-10-31T12:45:24.766Z,18.31
2022-10-31T12:47:54.545Z,18.46
2022-10-31T12:50:24.529Z,18.61
2022-10-31T12:53:00.630Z,18.48
2022-10-31T12:55:42.777Z,18.41
2022-10-31T12:58:24.788Z,18.24
2022-10-31T13:01:10.693Z,18.12
2022-10-31T13:03:48.966Z,18.15
2022-10-31T13:06:21.304Z,18.16
2022-10-31T13:08:59.977Z,18.07
2022-10-31T13:11:33.500Z,18.22
2022-10-31T13:14:22.338Z,17.95
2022-10-31T13:16:50.000Z,17.93
2022-10-31T13:19:28.865Z,17.83
2022-10-31T13:21:58.301Z,17.71
2022-10-31T13:24:33.060Z,17.71
2022-10-31T13:27:04.168Z,17.76
2022-10-31T13:29:37.975Z,17.86
2022-10-31T13:32:08.645Z,18.02
2022-10-31T13:34:48.986Z,18.10
2022-10-31T13:37:18.389Z,18.14
2022-10-31T13:39:57.215Z,18.19
2022-10-31T13:42:45.168Z,18.34
2022-10-31T13:45:24.232Z,18.63
2022-10-31T13:48:00.570Z,18.91
2022-10-31T13:50:32.933Z,19.15
2022-10-31T13:53:17.686Z,19.32
2022-10-31T13:56:04.377Z,19.48
2022-10-31T13:58:32.740Z,19.54
2022-10-31T14:01:26.002Z,19.53
2022-10-31T14:04:25.608Z,19.61
2022-10-31T14:06:58.752Z,19.62
2022-10-31T14:09:27.490Z,19.52
2022-10-31T14:11:56.071Z,19.43
2022-10-31T14:14:29.181Z,19.60
2022-10-31T14:16:59.326Z,19.92
2022-10-31T14:19:29.867Z,19.95
2022-10-31T14:21:56.828Z,20.09
2022-10-31T14:24:26.539Z,20.37
2022-10-31T14:27:02.401Z,20.48
2022-10-31T14:29:31.670Z,20.42
2022-10-31T14:32:13.914Z,20.13
2022-10-31T14:34:59.143Z,19.82
2022-10-31T14:37:53.595Z,19.31
2022-10-31T14:40:57.481Z,18.96
2022-10-31T14:43:39.185Z,18.69
2022-10-31T14:46:18.363Z,18.53
2022-10-31T14:48:52.525Z,18.68
2022-10-31T14:51:22.061Z,19.00
2022-10-31T14:53:55.827Z,19.28
2022-10-31T14:56:31.555Z,19.47
2022-10-31T14:59:02.357Z,19.65
2022-10-31T15:01:35.996Z,19.72
2022-10-31T15:04:23.735Z,19.65
2022-10-31T15:07:01.451Z,19.62
2022-10-31T15:09:31.727Z,19.48
2022-10-31T15:12:17.880Z,19.33
2022-10-31T15:14:44.691Z,19.05
2022-10-31T15:17:13.160Z,19.03
2022-10-31T15:19:40.140Z,18.90
2022-10-31T15:22:07.198Z,18.82
2022-10-31T15:24:39.914Z,18.66
2022-10-31T15:27:13.759Z,18.64
2022-10-31T15:29:52.406Z,18.64
2022-10-31T15:32:27.805Z,18.67
2022-10-31T15:34:57.058Z,18.57
2022-10-31T15:37:26.165Z,18.39
2022-10-31T15:39:53.640Z,18.21
2022-10-31T15:42:36.529Z,18.16
2022-10-31T15:45:25.057Z,18.15
2022-10-31T15:47:59.595Z,18.12
2022-10-31T15:50:41.659Z,17.99
2022-10-31T15:53:21.943Z,18.19
2022-10-31T15:55:58.519Z,18.61
2022-10-31T15:58:26.286Z,18.84
2022-10-31T16:01:04.935Z,18.86
2022-10-31T16:03:33.859Z,18.89
2022-10-31T16:06:06.014Z,18.85
2022-10-31T16:08:36.962Z,18.90
2022-10-31T16:11:13.868Z,18.90
2022-10-31T16:14:08.770Z,18.80
2022-10-31T16:16:43.407Z,18.98
2022-10-31T16:19:21.716Z,18.90
2022-10-31T16:21:52.393Z,18.82
2022-10-31T16:24:30.016Z,18.55
2022-10-31T16:27:06.278Z,18.55
2022-10-31T16:29:47.620Z,18.45
2022-10-31T16:32:46.736Z,18.53
2022-10-31T16:35:13.373Z,18.55
2022-10-31T16:37:44.032Z,18.50
2022-10-31T16:40:12.966Z,18.35
2022-10-31T16:42:40.268Z,18.13
2022-10-31T16:45:08.597Z,17.97
2022-10-31T16:47:35.527Z,17.80
2022-10-31T16:50:02.312Z,17.58
2022-10-31T16:52:38.035Z,17.44
2022-10-31T16:55:20.853Z,17.36
2022-10-31T16:57:51.484Z,17.40
2022-10-31T17:00:22.470Z,17.43
2022-10-31T17:02:51.257Z,17.25
2022-10-31T17:05:19.709Z,17.11
2022-10-31T17:07:47.444Z,16.98
2022-10-31T17:10:15.752Z,16.81
2022-10-31T17:12:48.029Z,16.75
2022-10-31T17:15:27.018Z,16.52
2022-10-31T17:17:54.681Z,16.40
2022-10-31T17:20:27.184Z,16.22
2022-10-31T17:22:54.529Z,16.14
2022-10-31T17:25:27.684Z,16.02
2022-10-31T17:27:54.850Z,15.98
2022-10-31T17:30:22.603Z,15.93
2022-10-31T17:32:50.786Z,15.85
2022-10-31T17:35:18.570Z,15.80
2022-10-31T17:37:46.604Z,15.75
2022-10-31T17:40:16.580Z,15.65
2022-10-31T17:42:48.963Z,15.59
2022-10-31T17:45:15.719Z,15.55
2022-10-31T17:47:42.431Z,15.54
2022-10-31T17:50:09.615Z,15.53
2022-10-31T17:52:36.328Z,15.52
2022-10-31T17:55:03.012Z,15.46
2022-10-31T17:57:34.499Z,15.45
2022-10-31T18:00:02.272Z,15.45
2022-10-31T18:02:29.077Z,15.35
2022-10-31T18:04:55.924Z,15.32
2022-10-31T18:07:23.014Z,15.15
2022-10-31T18:09:49.902Z,15.17
2022-10-31T18:12:16.935Z,15.12
2022-10-31T18:14:48.341Z,15.10
2022-10-31T18:17:15.488Z,15.06
2022-10-31T18:19:42.350Z,15.05
2022-10-31T18:22:09.356Z,15.05
2022-10-31T18:24:36.032Z,15.04
2022-10-31T18:27:02.873Z,15.01
2022-10-31T18:29:29.573Z,14.96
2022-10-31T18:31:56.362Z,14.90
2022-10-31T18:34:23.317Z,14.87
2022-10-31T18:36:50.124Z,14.88
2022-10-31T18:39:17.125Z,14.87
2022-10-31T18:41:44.010Z,14.85
2022-10-31T18:44:10.863Z,14.82
2022-10-31T18:46:37.645Z,14.83
2022-10-31T18:49:06.448Z,14.86
2022-10-31T18:51:33.433Z,14.83
2022-10-31T18:54:01.612Z,14.78
2022-10-31T18:56:31.812Z,14.73
2022-10-31T18:59:04.734Z,14.62
2022-10-31T19:01:31.954Z,14.55
2022-10-31T19:03:59.977Z,14.56
2022-10-31T19:06:27.859Z,14.50
2022-10-31T19:09:14.838Z,14.35
2022-10-31T19:11:41.529Z,14.38
2022-10-31T19:14:08.627Z,14.38
2022-10-31T19:16:35.990Z,14.41
2022-10-31T19:19:02.900Z,14.45
2022-10-31T19:21:31.237Z,14.44
2022-10-31T19:23:59.354Z,14.41
2022-10-31T19:26:27.185Z,14.37
2022-10-31T19:28:56.353Z,14.34
2022-10-31T19:31:23.587Z,14.29
2022-10-31T19:33:50.697Z,14.28
2022-10-31T19:36:19.041Z,14.31
2022-10-31T19:38:48.641Z,14.33
2022-10-31T19:41:21.905Z,14.37
2022-10-31T19:43:49.374Z,14.44
2022-10-31T19:46:27.804Z,14.44
2022-10-31T19:49:04.587Z,14.40
2022-10-31T19:51:31.369Z,14.39
2022-10-31T19:53:58.032Z,14.36
2022-10-31T19:56:26.255Z,14.38
2022-10-31T19:58:53.187Z,14.41
2022-10-31T20:01:24.089Z,14.36
2022-10-31T20:03:51.513Z,14.35
2022-10-31T20:06:27.675Z,14.33
2022-10-31T20:08:58.736Z,14.32
2022-10-31T20:11:27.027Z,14.31
2022-10-31T20:13:58.191Z,14.27
2022-10-31T20:16:26.320Z,14.27
2022-10-31T20:18:53.736Z,14.29
2022-10-31T20:21:23.387Z,14.32
2022-10-31T20:23:50.339Z,14.33
2022-10-31T20:26:19.450Z,14.32
2022-10-31T20:28:46.871Z,14.34
2022-10-31T20:31:21.815Z,14.32
2022-10-31T20:33:49.421Z,14.32
2022-10-31T20:36:19.711Z,14.31
2022-10-31T20:38:47.344Z,14.36
2022-10-31T20:41:15.269Z,14.37
2022-10-31T20:43:42.303Z,14.39
2022-10-31T20:46:14.625Z,14.36
2022-10-31T20:48:41.789Z,14.30
2022-10-31T20:51:13.312Z,14.27
2022-10-31T20:53:40.149Z,14.22
2022-10-31T20:56:09.658Z,14.29
2022-10-31T20:58:38.051Z,14.32
2022-10-31T21:01:08.376Z,14.30
2022-10-31T21:03:36.686Z,14.26
2022-10-31T21:06:04.894Z,14.23
2022-10-31T21:08:33.051Z,14.18
2022-10-31T21:11:00.661Z,14.12
2022-10-31T21:13:31.883Z,14.09
2022-10-31T21:16:02.911Z,13.98
2022-10-31T21:18:31.033Z,13.92
2022-10-31T21:20:58.187Z,13.90
2022-10-31T21:23:25.175Z,13.85
2022-10-31T21:25:52.800Z,13.82
2022-10-31T21:28:19.524Z,13.85
2022-10-31T21:30:51.777Z,13.80
2022-10-31T21:33:19.150Z,13.76
2022-10-31T21:35:51.164Z,13.84
2022-10-31T21:38:18.643Z,13.84
2022-10-31T21:40:45.585Z,13.82
2022-10-31T21:43:12.447Z,13.75
2022-10-31T21:45:39.214Z,13.76
2022-10-31T21:48:06.312Z,13.71
2022-10-31T21:50:34.642Z,13.65
2022-10-31T21:53:21.407Z,13.63
2022-10-31T21:55:48.271Z,13.57
2022-10-31T21:58:14.988Z,13.56
2022-10-31T22:00:41.708Z,13.51
2022-10-31T22:03:08.480Z,13.52
2022-10-31T22:05:35.211Z,13.45
2022-10-31T22:08:02.405Z,13.41
2022-10-31T22:10:29.612Z,13.34
2022-10-31T22:12:56.687Z,13.30
2022-10-31T22:15:24.344Z,13.23
2022-10-31T22:17:51.289Z,13.26
2022-10-31T22:20:19.123Z,13.21
2022-10-31T22:22:47.247Z,13.25
2022-10-31T22:25:14.110Z,13.31
2022-10-31T22:27:41.895Z,13.30
2022-10-31T22:30:09.398Z,13.31
2022-10-31T22:32:36.205Z,13.31
2022-10-31T22:35:02.980Z,13.32
2022-10-31T22:37:29.691Z,13.33
2022-10-31T22:39:56.571Z,13.32
2022-10-31T22:42:23.267Z,13.31
2022-10-31T22:44:49.993Z,13.27
2022-10-31T22:47:16.886Z,13.27
2022-10-31T22:49:44.009Z,13.27
2022-10-31T22:52:10.774Z,13.31
2022-10-31T22:54:37.545Z,13.34
2022-10-31T22:57:04.307Z,13.35
2022-10-31T22:59:31.055Z,13.37
2022-10-31T23:01:58.131Z,13.33
2022-10-31T23:04:24.939Z,13.37
2022-10-31T23:06:51.671Z,13.36
2022-10-31T23:09:18.772Z,13.35
2022-10-31T23:11:46.186Z,13.38
2022-10-31T23:14:18.832Z,13.31
2022-10-31T23:16:46.685Z,13.25
2022-10-31T23:19:20.677Z,13.20
2022-10-31T23:21:56.571Z,13.15
2022-10-31T23:24:44.512Z,13.09
2022-10-31T23:27:20.537Z,12.98
2022-10-31T23:29:58.369Z,12.95
2022-10-31T23:32:32.690Z,13.00
2022-10-31T23:35:01.764Z,12.92
2022-10-31T23:37:31.317Z,13.05
2022-10-31T23:39:58.658Z,13.04
2022-10-31T23:42:26.919Z,13.11
2022-10-31T23:44:53.899Z,13.15
2022-10-31T23:47:21.110Z,13.15
2022-10-31T23:49:47.991Z,13.10
2022-10-31T23:52:16.000Z,13.10
2022-10-31T23:54:43.168Z,13.05
2022-10-31T23:57:14.221Z,13.00
2022-10-31T23:59:41.794Z,13.03
